createdAt,value
2018-06-14T00:02:02.270Z,2.23
2018-06-14T00:04:30.552Z,2.20
2018-06-14T00:06:58.921Z,2.13
2018-06-14T00:09:27.208Z,2.10
2018-06-14T00:11:55.494Z,2.23
2018-06-14T00:14:23.803Z,2.27
2018-06-14T00:16:53.257Z,1.97
2018-06-14T00:19:21.457Z,2.47
2018-06-14T00:21:49.689Z,2.10
2018-06-14T00:24:17.861Z,2.30
2018-06-14T00:26:46.168Z,2.33
2018-06-14T00:29:14.301Z,2.10
2018-06-14T00:31:42.449Z,2.20
2018-06-14T00:34:10.607Z,2.00
2018-06-14T00:36:39.903Z,2.37
2018-06-14T00:39:08.763Z,2.40
2018-06-14T00:41:37.345Z,2.60
2018-06-14T00:44:05.718Z,2.47
2018-06-14T00:46:34.003Z,2.20
2018-06-14T00:49:02.214Z,2.30
2018-06-14T00:51:30.425Z,2.30
2018-06-14T00:53:58.639Z,2.80
2018-06-14T00:56:26.905Z,2.53
2018-06-14T00:58:55.079Z,2.57
2018-06-14T01:01:23.261Z,2.77
2018-06-14T01:03:51.463Z,2.50
2018-06-14T01:06:19.715Z,2.70
2018-06-14T01:08:47.951Z,2.93
2018-06-14T01:11:16.170Z,2.70
2018-06-14T01:13:44.428Z,3.23
2018-06-14T01:16:12.812Z,3.00
2018-06-14T01:18:41.028Z,2.97
2018-06-14T01:21:09.203Z,2.93
2018-06-14T01:23:37.463Z,2.90
2018-06-14T01:26:05.891Z,2.83
2018-06-14T01:28:34.125Z,3.30
2018-06-14T01:31:02.341Z,3.13
2018-06-14T01:33:30.559Z,2.70
2018-06-14T01:35:59.906Z,3.27
2018-06-14T01:38:28.131Z,3.27
2018-06-14T01:40:56.371Z,3.10
2018-06-14T01:43:24.666Z,3.53
2018-06-14T01:45:52.968Z,3.43
2018-06-14T01:48:21.170Z,3.47
2018-06-14T01:50:49.366Z,3.63
2018-06-14T01:53:17.563Z,4.03
2018-06-14T01:55:45.872Z,3.53
2018-06-14T01:58:14.004Z,3.97
2018-06-14T02:00:42.209Z,4.03
2018-06-14T02:03:10.525Z,3.57
2018-06-14T02:05:38.800Z,4.13
2018-06-14T02:08:06.965Z,3.87
2018-06-14T02:10:35.161Z,4.10
2018-06-14T02:13:03.349Z,4.20
2018-06-14T02:15:32.671Z,4.03
2018-06-14T02:18:00.877Z,4.43
2018-06-14T02:20:29.623Z,5.10
2018-06-14T02:22:57.835Z,4.70
2018-06-14T02:25:26.161Z,5.40
2018-06-14T02:27:54.344Z,4.90
2018-06-14T02:30:22.704Z,5.50
2018-06-14T02:32:51.106Z,5.27
2018-06-14T02:35:19.580Z,5.10
2018-06-14T02:37:47.839Z,5.60
2018-06-14T02:40:16.159Z,5.08
2018-06-14T02:42:44.828Z,6.03
2018-06-14T02:45:14.250Z,5.27
2018-06-14T02:47:42.442Z,6.07
2018-06-14T02:50:10.961Z,6.10
2018-06-14T02:52:39.201Z,5.80
2018-06-14T02:55:08.164Z,6.20
2018-06-14T02:57:37.350Z,6.43
2018-06-14T03:00:05.986Z,5.77
2018-06-14T03:02:34.168Z,6.60
2018-06-14T03:05:02.412Z,6.60
2018-06-14T03:07:33.917Z,7.00
2018-06-14T03:10:04.047Z,6.30
2018-06-14T03:12:32.447Z,6.77
2018-06-14T03:15:00.869Z,6.50
2018-06-14T03:17:28.884Z,6.07
2018-06-14T03:19:57.297Z,7.10
2018-06-14T03:22:26.584Z,6.87
2018-06-14T03:24:54.837Z,7.63
2018-06-14T03:27:23.077Z,6.93
2018-06-14T03:29:51.288Z,7.73
2018-06-14T03:32:19.484Z,7.63
2018-06-14T03:34:47.697Z,7.60
2018-06-14T03:37:15.865Z,7.30
2018-06-14T03:39:44.057Z,7.27
2018-06-14T03:42:16.939Z,7.80
2018-06-14T03:44:45.142Z,7.30
2018-06-14T03:47:13.333Z,8.03
2018-06-14T03:49:42.446Z,7.90
2018-06-14T03:52:11.549Z,8.20
2018-06-14T03:54:39.741Z,8.20
2018-06-14T03:57:08.404Z,7.80
2018-06-14T03:59:36.707Z,7.80
2018-06-14T04:02:05.367Z,7.57
2018-06-14T04:04:33.562Z,8.07
2018-06-14T04:07:01.870Z,8.37
2018-06-14T04:09:30.068Z,7.87
2018-06-14T04:11:58.266Z,8.03
2018-06-14T04:14:26.612Z,8.77
2018-06-14T04:16:54.965Z,8.17
2018-06-14T04:19:23.239Z,8.43
2018-06-14T04:21:51.504Z,10.00
2018-06-14T04:24:19.710Z,8.70
2018-06-14T04:26:48.068Z,8.97
2018-06-14T04:29:17.105Z,9.37
2018-06-14T04:31:45.042Z,8.57
2018-06-14T04:34:13.296Z,8.97
2018-06-14T04:36:41.632Z,8.00
2018-06-14T04:39:10.748Z,8.20
2018-06-14T04:41:39.026Z,8.90
2018-06-14T04:44:07.263Z,8.20
2018-06-14T04:46:35.495Z,8.00
2018-06-14T04:49:03.725Z,8.50
2018-06-14T04:51:36.166Z,7.97
2018-06-14T04:54:04.410Z,8.37
2018-06-14T04:56:33.764Z,8.47
2018-06-14T04:59:01.959Z,8.77
2018-06-14T05:01:30.184Z,8.60
2018-06-14T05:03:58.403Z,9.00
2018-06-14T05:06:26.897Z,8.60
2018-06-14T05:08:55.126Z,8.53
2018-06-14T05:11:23.278Z,8.23
2018-06-14T05:13:51.551Z,8.17
2018-06-14T05:16:19.966Z,8.70
2018-06-14T05:18:48.234Z,8.40
2018-06-14T05:21:16.422Z,8.33
2018-06-14T05:23:44.608Z,7.87
2018-06-14T05:27:15.895Z,7.77
2018-06-14T05:29:44.072Z,8.13
2018-06-14T05:32:12.315Z,8.80
2018-06-14T05:34:40.493Z,8.27
2018-06-14T05:37:08.649Z,8.23
2018-06-14T05:39:36.840Z,8.17
2018-06-14T05:42:05.055Z,9.00
2018-06-14T05:44:33.286Z,7.87
2018-06-14T05:47:01.774Z,8.70
2018-06-14T05:49:29.950Z,7.93
2018-06-14T05:51:58.231Z,8.50
2018-06-14T05:54:26.436Z,8.10
2018-06-14T05:56:54.846Z,8.53
2018-06-14T05:59:23.018Z,8.33
2018-06-14T06:01:51.233Z,7.63
2018-06-14T06:04:19.417Z,7.83
2018-06-14T06:06:47.730Z,8.10
2018-06-14T06:09:15.996Z,8.77
2018-06-14T06:11:44.212Z,8.17
2018-06-14T06:14:12.463Z,8.53
2018-06-14T06:16:40.420Z,8.63
2018-06-14T06:19:08.640Z,7.10
2018-06-14T06:21:37.813Z,6.90
2018-06-14T06:24:06.108Z,6.73
2018-06-14T06:26:34.470Z,7.47
2018-06-14T06:29:02.751Z,7.27
2018-06-14T06:31:30.966Z,7.03
2018-06-14T06:33:59.129Z,6.67
2018-06-14T06:36:29.437Z,6.70
2018-06-14T06:38:57.604Z,6.70
2018-06-14T06:41:25.874Z,6.70
2018-06-14T06:43:54.127Z,6.70
2018-06-14T06:46:22.300Z,6.60
2018-06-14T06:48:50.481Z,6.07
2018-06-14T06:51:18.622Z,6.70
2018-06-14T06:53:46.798Z,5.97
2018-06-14T06:56:14.994Z,5.93
2018-06-14T06:58:44.228Z,6.00
2018-06-14T07:01:12.427Z,5.80
2018-06-14T07:03:40.591Z,5.17
2018-06-14T07:06:09.027Z,4.73
2018-06-14T07:08:37.548Z,5.60
2018-06-14T07:11:05.803Z,4.37
2018-06-14T07:13:34.038Z,4.50
2018-06-14T07:16:02.295Z,4.37
2018-06-14T07:18:30.572Z,4.90
2018-06-14T07:20:58.935Z,4.80
2018-06-14T07:23:27.145Z,4.40
2018-06-14T07:25:56.415Z,4.03
2018-06-14T07:28:24.656Z,4.90
2018-06-14T07:30:52.865Z,4.37
2018-06-14T07:33:21.133Z,4.83
2018-06-14T07:35:49.698Z,3.70
2018-06-14T07:38:17.881Z,4.23
2018-06-14T07:40:46.107Z,4.27
2018-06-14T07:43:14.368Z,4.30
2018-06-14T07:45:42.820Z,4.10
2018-06-14T07:48:11.008Z,3.73
2018-06-14T07:50:39.332Z,3.80
2018-06-14T07:53:14.040Z,4.10
2018-06-14T07:55:42.267Z,4.17
2018-06-14T07:58:10.494Z,4.07
2018-06-14T08:00:38.686Z,4.50
2018-06-14T08:03:06.832Z,3.77
2018-06-14T08:05:35.070Z,4.17
2018-06-14T08:08:03.359Z,4.00
2018-06-14T08:10:31.591Z,4.90
2018-06-14T08:12:59.791Z,3.93
2018-06-14T08:15:28.041Z,4.63
2018-06-14T08:17:56.246Z,4.20
2018-06-14T08:20:24.454Z,4.10
2018-06-14T08:22:52.809Z,4.10
2018-06-14T08:25:20.981Z,4.10
2018-06-14T08:27:49.229Z,4.20
2018-06-14T08:30:17.149Z,4.30
2018-06-14T08:32:45.312Z,4.07
2018-06-14T08:35:13.645Z,4.27
2018-06-14T08:37:41.870Z,4.50
2018-06-14T08:40:10.066Z,4.10
2018-06-14T08:42:38.276Z,4.37
2018-06-14T08:45:07.526Z,4.40
2018-06-14T08:47:35.943Z,4.27
2018-06-14T08:50:04.312Z,4.17
2018-06-14T08:52:32.530Z,3.83
2018-06-14T08:55:00.993Z,3.67
2018-06-14T08:57:29.230Z,3.70
2018-06-14T08:59:57.525Z,3.90
2018-06-14T09:02:25.535Z,3.97
2018-06-14T09:04:53.935Z,4.17
2018-06-14T09:07:22.144Z,3.97
2018-06-14T09:09:50.358Z,3.70
2018-06-14T09:12:18.536Z,3.47
2018-06-14T09:14:46.743Z,3.87
2018-06-14T09:17:15.079Z,4.00
2018-06-14T09:19:43.267Z,4.03
2018-06-14T09:22:11.482Z,3.67
2018-06-14T09:24:39.710Z,3.10
2018-06-14T09:27:07.973Z,3.40
2018-06-14T09:29:36.211Z,3.40
2018-06-14T09:32:04.471Z,3.50
2018-06-14T09:34:32.760Z,3.40
2018-06-14T09:37:01.137Z,3.40
2018-06-14T09:39:29.126Z,3.10
2018-06-14T09:41:57.354Z,3.03
2018-06-14T09:44:25.610Z,3.57
2018-06-14T09:46:55.952Z,3.20
2018-06-14T09:49:24.165Z,2.80
2018-06-14T09:51:52.336Z,3.03
2018-06-14T09:54:20.548Z,2.77
2018-06-14T09:56:48.957Z,3.10
2018-06-14T09:59:17.147Z,2.90
2018-06-14T10:01:45.370Z,2.90
2018-06-14T10:04:13.535Z,3.13
2018-06-14T10:06:41.846Z,3.07
2018-06-14T10:09:11.797Z,3.20
2018-06-14T10:11:39.985Z,4.30
2018-06-14T10:14:08.609Z,3.37
2018-06-14T10:16:37.564Z,2.97
2018-06-14T10:19:05.946Z,3.30
2018-06-14T10:21:34.097Z,3.57
2018-06-14T10:24:02.248Z,3.90
2018-06-14T10:26:30.516Z,3.67
2018-06-14T10:28:58.663Z,3.93
2018-06-14T10:31:26.807Z,4.23
2018-06-14T10:33:55.003Z,4.30
2018-06-14T10:36:23.344Z,3.50
2018-06-14T10:38:51.573Z,4.07
2018-06-14T10:41:19.774Z,3.90
2018-06-14T10:43:47.951Z,3.80
2018-06-14T10:46:16.285Z,3.53
2018-06-14T10:48:44.463Z,3.13
2018-06-14T10:51:12.656Z,3.17
2018-06-14T10:53:40.853Z,3.23
2018-06-14T10:56:09.246Z,3.30
2018-06-14T10:58:37.760Z,2.90
2018-06-14T11:01:06.012Z,3.30
2018-06-14T11:03:34.203Z,3.50
2018-06-14T11:06:02.394Z,3.30
2018-06-14T11:08:30.533Z,3.50
2018-06-14T11:10:58.738Z,3.50
2018-06-14T11:13:26.968Z,3.30
2018-06-14T11:15:55.357Z,3.63
2018-06-14T11:18:23.564Z,4.07
2018-06-14T11:20:51.802Z,3.30
2018-06-14T11:23:19.970Z,4.80
2018-06-14T11:25:48.288Z,3.80
2018-06-14T11:28:16.517Z,3.63
2018-06-14T11:30:45.025Z,3.80
2018-06-14T11:33:13.417Z,3.67
2018-06-14T11:35:41.589Z,3.50
2018-06-14T11:38:09.748Z,4.40
2018-06-14T11:40:37.934Z,4.87
2018-06-14T11:43:06.116Z,4.50
2018-06-14T11:45:34.437Z,4.37
2018-06-14T11:48:02.700Z,4.30
2018-06-14T11:50:30.889Z,4.17
2018-06-14T11:52:59.103Z,4.90
2018-06-14T11:55:27.383Z,4.40
2018-06-14T11:57:55.654Z,5.27
2018-06-14T12:00:23.869Z,5.50
2018-06-14T12:02:52.100Z,5.27
2018-06-14T12:05:21.530Z,4.60
2018-06-14T12:07:49.811Z,4.67
2018-06-14T12:10:18.055Z,5.00
2018-06-14T12:12:46.255Z,5.03
2018-06-14T12:15:14.737Z,4.00
2018-06-14T12:17:56.942Z,4.30
2018-06-14T12:20:25.195Z,3.53
2018-06-14T12:22:53.357Z,4.17
2018-06-14T12:25:21.616Z,4.60
2018-06-14T12:27:49.815Z,3.97
2018-06-14T12:30:17.989Z,3.70
2018-06-14T12:32:46.140Z,4.43
2018-06-14T12:35:14.874Z,4.43
2018-06-14T12:37:43.082Z,3.80
2018-06-14T12:40:11.247Z,3.97
2018-06-14T12:42:39.474Z,4.10
2018-06-14T12:45:08.283Z,3.90
2018-06-14T12:47:37.055Z,4.83
2018-06-14T12:50:05.233Z,5.17
2018-06-14T12:52:33.426Z,5.20
2018-06-14T12:55:01.833Z,4.63
2018-06-14T12:57:30.119Z,4.70
2018-06-14T12:59:58.287Z,5.60
2018-06-14T13:02:27.171Z,5.23
2018-06-14T13:04:55.789Z,4.80
2018-06-14T13:07:24.089Z,4.30
2018-06-14T13:09:52.397Z,4.53
2018-06-14T13:12:20.587Z,4.00
2018-06-14T13:14:48.790Z,4.27
2018-06-14T13:17:17.020Z,4.13
2018-06-14T13:19:45.651Z,4.40
2018-06-14T13:22:13.907Z,4.27
2018-06-14T13:24:43.145Z,4.90
2018-06-14T13:27:12.890Z,4.00
2018-06-14T13:29:41.481Z,4.67
2018-06-14T13:32:09.831Z,4.37
2018-06-14T13:34:39.660Z,4.37
2018-06-14T13:37:07.859Z,4.23
2018-06-14T13:39:37.042Z,5.07
2018-06-14T13:42:05.291Z,4.87
2018-06-14T13:44:33.315Z,4.63
2018-06-14T13:47:01.759Z,5.20
2018-06-14T13:49:30.156Z,4.40
2018-06-14T13:51:58.411Z,4.60
2018-06-14T13:54:27.122Z,4.70
2018-06-14T13:56:55.396Z,4.47
2018-06-14T13:59:23.611Z,4.23
2018-06-14T14:01:51.849Z,4.57
2018-06-14T14:04:20.030Z,4.87
2018-06-14T14:06:48.302Z,4.03
2018-06-14T14:09:16.481Z,4.70
2018-06-14T14:11:44.648Z,4.77
2018-06-14T14:14:12.868Z,5.03
2018-06-14T14:16:40.878Z,4.80
2018-06-14T14:19:09.159Z,4.70
2018-06-14T14:21:37.468Z,5.10
2018-06-14T14:24:05.931Z,4.70
2018-06-14T14:26:34.320Z,4.60
2018-06-14T14:29:02.525Z,5.43
2018-06-14T14:31:30.729Z,4.90
2018-06-14T14:33:58.896Z,4.83
2018-06-14T14:36:28.193Z,5.20
2018-06-14T14:38:56.480Z,4.87
2018-06-14T14:41:24.892Z,4.77
2018-06-14T14:43:53.056Z,5.50
2018-06-14T14:46:21.229Z,5.30
2018-06-14T14:48:49.542Z,5.53
2018-06-14T14:51:17.953Z,5.87
2018-06-14T14:53:46.248Z,6.60
2018-06-14T14:56:14.673Z,5.97
2018-06-14T14:58:43.060Z,5.93
2018-06-14T15:01:11.376Z,6.90
2018-06-14T15:03:39.728Z,7.27
2018-06-14T15:06:08.367Z,6.83
2018-06-14T15:08:36.687Z,6.90
2018-06-14T15:11:04.944Z,7.17
2018-06-14T15:13:33.234Z,7.47
2018-06-14T15:16:01.589Z,7.37
2018-06-14T15:18:29.583Z,7.07
2018-06-14T15:20:57.768Z,7.70
2018-06-14T15:23:26.546Z,7.47
2018-06-14T15:25:54.899Z,8.00
2018-06-14T15:28:23.120Z,7.53
2018-06-14T15:30:51.310Z,7.77
2018-06-14T15:33:19.537Z,8.30
2018-06-14T15:35:47.836Z,7.57
2018-06-14T15:38:16.042Z,8.03
2018-06-14T15:40:44.403Z,7.40
2018-06-14T15:43:12.673Z,7.97
2018-06-14T15:45:41.955Z,7.37
2018-06-14T15:48:10.166Z,6.47
2018-06-14T15:50:38.393Z,6.73
2018-06-14T15:53:06.581Z,6.83
2018-06-14T15:56:01.660Z,6.63
2018-06-14T15:58:30.917Z,7.27
2018-06-14T16:00:59.133Z,7.13
2018-06-14T16:03:27.325Z,7.33
2018-06-14T16:05:55.618Z,7.47
2018-06-14T16:08:23.892Z,7.63
2018-06-14T16:10:52.491Z,7.50
2018-06-14T16:13:21.213Z,7.90
2018-06-14T16:15:49.546Z,8.20
2018-06-14T16:18:17.817Z,8.07
2018-06-14T16:23:44.165Z,7.23
2018-06-14T16:26:12.361Z,7.10
2018-06-14T16:28:40.523Z,7.00
2018-06-14T16:31:08.824Z,7.47
2018-06-14T16:33:37.323Z,7.20
2018-06-14T16:36:05.401Z,7.10
2018-06-14T16:38:33.615Z,6.00
2018-06-14T16:41:02.558Z,6.60
2018-06-14T16:43:30.739Z,6.70
2018-06-14T16:45:59.214Z,6.37
2018-06-14T16:48:27.441Z,6.33
2018-06-14T16:50:55.712Z,7.13
2018-06-14T16:53:23.978Z,6.50
2018-06-14T16:55:52.200Z,6.33
2018-06-14T16:58:20.476Z,6.07
2018-06-14T17:00:48.477Z,5.70
2018-06-14T17:03:17.219Z,5.77
2018-06-14T17:05:45.235Z,6.40
2018-06-14T17:08:13.584Z,6.40
2018-06-14T17:10:41.907Z,6.00
2018-06-14T17:13:10.106Z,5.67
2018-06-14T17:15:38.441Z,5.80
2018-06-14T17:18:06.666Z,5.07
2018-06-14T17:20:34.907Z,5.90
2018-06-14T17:23:03.172Z,5.47
2018-06-14T17:25:31.557Z,5.43
2018-06-14T17:27:59.851Z,5.37
2018-06-14T17:30:28.060Z,5.00
2018-06-14T17:32:56.240Z,4.87
2018-06-14T17:35:25.496Z,5.67
2018-06-14T17:37:53.684Z,5.20
2018-06-14T17:40:21.908Z,5.40
2018-06-14T17:42:50.163Z,4.77
2018-06-14T17:45:18.580Z,5.27
2018-06-14T17:47:46.911Z,5.10
2018-06-14T17:50:15.092Z,5.63
2018-06-14T17:52:43.043Z,5.20
2018-06-14T17:55:11.278Z,5.03
2018-06-14T17:57:39.597Z,5.83
2018-06-14T18:00:07.836Z,5.07
2018-06-14T18:02:36.123Z,5.60
2018-06-14T18:05:05.198Z,6.03
2018-06-14T18:07:33.027Z,5.63
2018-06-14T18:10:01.091Z,6.00
2018-06-14T18:12:29.296Z,5.33
2018-06-14T18:14:57.688Z,5.70
2018-06-14T18:17:25.890Z,5.90
2018-06-14T18:19:54.097Z,5.87
2018-06-14T18:22:22.277Z,5.87
2018-06-14T18:24:50.574Z,6.20
2018-06-14T18:27:18.829Z,5.97
2018-06-14T18:29:47.114Z,6.33
2018-06-14T18:32:15.318Z,6.50
2018-06-14T18:34:43.537Z,6.43
2018-06-14T18:37:11.889Z,7.47
2018-06-14T18:39:40.118Z,6.03
2018-06-14T18:42:08.388Z,6.97
2018-06-14T18:44:36.904Z,7.17
2018-06-14T18:47:06.010Z,6.60
2018-06-14T18:49:34.010Z,7.10
2018-06-14T18:52:02.299Z,7.43
2018-06-14T18:54:30.640Z,7.10
2018-06-14T18:56:59.978Z,7.37
2018-06-14T18:59:28.205Z,7.03
2018-06-14T19:01:56.416Z,7.13
2018-06-14T19:04:24.843Z,7.03
2018-06-14T19:06:53.119Z,7.10
2018-06-14T19:09:22.372Z,7.43
2018-06-14T19:11:50.704Z,7.67
2018-06-14T19:14:18.991Z,7.60
2018-06-14T19:16:47.460Z,6.90
2018-06-14T19:19:15.694Z,5.20
2018-06-14T19:21:43.917Z,5.20
2018-06-14T19:24:11.914Z,5.13
2018-06-14T19:26:40.349Z,5.10
2018-06-14T19:29:08.634Z,4.37
2018-06-14T19:31:36.975Z,4.43
2018-06-14T19:34:05.682Z,4.70
2018-06-14T19:36:34.078Z,4.80
2018-06-14T19:39:02.330Z,4.70
2018-06-14T19:41:30.524Z,4.20
2018-06-14T19:43:58.736Z,5.00
2018-06-14T19:46:27.141Z,4.80
2018-06-14T19:48:55.469Z,4.40
2018-06-14T19:51:23.750Z,5.07
2018-06-14T19:53:51.972Z,4.50
2018-06-14T19:56:20.267Z,4.47
2018-06-14T19:58:48.504Z,5.17
2018-06-14T20:01:17.768Z,5.17
2018-06-14T20:03:46.027Z,4.87
2018-06-14T20:06:14.244Z,4.90
2018-06-14T20:08:42.422Z,4.77
2018-06-14T20:11:12.756Z,5.00
2018-06-14T20:13:41.019Z,5.57
2018-06-14T20:16:09.245Z,4.93
2018-06-14T20:18:37.206Z,5.70
2018-06-14T20:21:05.508Z,4.93
2018-06-14T20:23:33.697Z,5.57
2018-06-14T20:26:01.988Z,5.50
2018-06-14T20:28:30.272Z,5.53
2018-06-14T20:30:58.526Z,5.43
2018-06-14T20:33:27.158Z,5.60
2018-06-14T20:35:55.533Z,5.30
2018-06-14T20:38:23.760Z,5.57
2018-06-14T20:40:52.040Z,5.50
2018-06-14T20:43:20.238Z,6.00
2018-06-14T20:45:48.582Z,5.57
2018-06-14T20:48:16.751Z,5.83
2018-06-14T20:50:44.941Z,5.63
2018-06-14T20:53:13.191Z,5.43
2018-06-14T20:55:41.491Z,6.00
2018-06-14T20:58:09.706Z,6.17
2018-06-14T21:00:37.892Z,5.70
2018-06-14T21:03:06.117Z,5.77
2018-06-14T21:05:34.510Z,6.20
2018-06-14T21:08:02.802Z,5.57
2018-06-14T21:10:31.291Z,5.63
2018-06-14T21:12:59.483Z,5.90
2018-06-14T21:15:27.733Z,5.90
2018-06-14T21:17:55.987Z,5.77
2018-06-14T21:20:24.238Z,5.87
2018-06-14T21:22:52.839Z,5.13
2018-06-14T21:25:21.172Z,5.70
2018-06-14T21:27:49.456Z,6.13
2018-06-14T21:30:17.661Z,6.07
2018-06-14T21:32:45.963Z,5.70
2018-06-14T21:35:14.476Z,5.50
2018-06-14T21:37:42.675Z,6.00
2018-06-14T21:40:10.868Z,6.10
2018-06-14T21:42:39.142Z,6.23
2018-06-14T21:45:07.700Z,6.70
2018-06-14T21:47:35.925Z,6.90
2018-06-14T21:50:04.167Z,5.60
2018-06-14T21:52:32.396Z,6.17
2018-06-14T21:55:00.784Z,6.47
2018-06-14T21:57:29.033Z,7.17
2018-06-14T21:59:57.293Z,6.20
2018-06-14T22:02:25.479Z,7.00
2018-06-14T22:04:53.864Z,6.67
2018-06-14T22:07:22.051Z,6.10
2018-06-14T22:09:50.237Z,6.23
2018-06-14T22:12:18.461Z,7.13
2018-06-14T22:14:46.744Z,6.50
2018-06-14T22:17:14.967Z,6.13
2018-06-14T22:19:43.165Z,6.57
2018-06-14T22:22:11.341Z,6.03
2018-06-14T22:24:39.466Z,7.10
2018-06-14T22:27:07.912Z,6.50
2018-06-14T22:29:35.863Z,6.83
2018-06-14T22:32:04.045Z,7.07
2018-06-14T22:34:43.730Z,7.63
2018-06-14T22:37:11.992Z,7.17
2018-06-14T22:39:39.944Z,7.67
2018-06-14T22:42:08.066Z,6.80
2018-06-14T22:44:36.232Z,8.10
2018-06-14T22:47:04.532Z,7.50
2018-06-14T22:49:32.677Z,7.17
2018-06-14T22:52:14.852Z,7.10
2018-06-14T22:54:43.067Z,8.00
2018-06-14T22:57:11.243Z,8.37
2018-06-14T22:59:39.422Z,7.37
2018-06-14T23:02:07.592Z,8.70
2018-06-14T23:04:35.779Z,7.80
2018-06-14T23:07:04.019Z,8.50
2018-06-14T23:10:42.940Z,7.87
2018-06-14T23:13:14.387Z,8.30
2018-06-14T23:15:42.580Z,7.53
2018-06-14T23:18:10.767Z,7.37
2018-06-14T23:20:38.896Z,7.50
2018-06-14T23:23:07.542Z,7.53
2018-06-14T23:25:36.312Z,7.43
2018-06-14T23:28:04.551Z,7.67
2018-06-14T23:30:32.832Z,7.07
2018-06-14T23:33:01.021Z,7.70
2018-06-14T23:35:29.468Z,7.40
2018-06-14T23:37:57.746Z,8.23
2018-06-14T23:40:26.693Z,7.90
2018-06-14T23:42:54.891Z,7.27
2018-06-14T23:45:23.175Z,8.07
2018-06-14T23:47:51.609Z,7.93
2018-06-14T23:50:19.797Z,7.83
2018-06-14T23:52:47.994Z,8.77
2018-06-14T23:55:16.298Z,7.37
2018-06-14T23:57:44.505Z,7.20
